Terminal Aerodrome Forecast
Issued by NWS

Home | Current Version | Previous Version | Text Only | Print | Product List | Glossary On
Versions: 1 2 3 4 5 6 7 8 9 10 11 12 13 14 15 16 17 18 19 20 21 22 23
000
FTUS43 KSGF 221700
TAFBBG
TAF
KBBG 221722Z 2218/2318 13008KT P6SM OVC250
     FM222300 VRB04KT P6SM VCSH BKN050 OVC100
     FM230000 VRB03KT P6SM -SHRA BKN050 OVC100
     FM230600 13005KT P6SM VCSH BKN050 OVC100=

USA.gov is the U.S. government's official web portal to all federal, state and local government web resources and services.